createdAt,value
2023-03-30T00:01:17.466Z,5.70
2023-03-30T00:03:46.769Z,5.40
2023-03-30T00:06:23.152Z,3.92
2023-03-30T00:08:59.206Z,3.25
2023-03-30T00:11:28.367Z,3.28
2023-03-30T00:13:56.118Z,4.65
2023-03-30T00:16:24.056Z,5.60
2023-03-30T00:18:52.300Z,3.95
2023-03-30T00:21:21.033Z,4.95
2023-03-30T00:23:49.716Z,5.63
2023-03-30T00:26:18.160Z,3.17
2023-03-30T00:28:46.907Z,5.10
2023-03-30T00:31:14.729Z,7.03
2023-03-30T00:33:47.140Z,4.82
2023-03-30T00:36:16.599Z,4.68
2023-03-30T00:38:45.952Z,4.13
2023-03-30T00:41:16.795Z,4.15
2023-03-30T00:43:59.583Z,2.97
2023-03-30T00:46:31.670Z,4.63
2023-03-30T00:49:05.490Z,6.13
2023-03-30T00:51:37.428Z,5.03
2023-03-30T00:54:17.649Z,4.80
2023-03-30T00:56:47.435Z,4.70
2023-03-30T00:59:16.020Z,3.78
2023-03-30T01:01:50.701Z,6.18
2023-03-30T01:04:19.191Z,4.20
2023-03-30T01:06:49.211Z,6.15
2023-03-30T01:09:18.549Z,5.10
2023-03-30T01:11:46.828Z,3.75
2023-03-30T01:14:16.459Z,3.72
2023-03-30T01:17:05.093Z,4.25
2023-03-30T01:19:58.829Z,4.28
2023-03-30T01:22:50.960Z,3.28
2023-03-30T01:25:30.832Z,4.95
2023-03-30T01:28:35.294Z,4.90
2023-03-30T01:31:11.302Z,7.57
2023-03-30T01:33:51.384Z,4.15
2023-03-30T01:36:34.463Z,6.20
2023-03-30T01:39:39.844Z,4.07
2023-03-30T01:42:09.772Z,3.95
2023-03-30T01:44:48.287Z,4.57
2023-03-30T01:47:51.871Z,3.78
2023-03-30T01:50:43.997Z,5.72
2023-03-30T01:53:28.629Z,7.35
2023-03-30T01:56:15.714Z,4.22
2023-03-30T01:59:10.008Z,4.55
2023-03-30T02:01:41.727Z,5.55
2023-03-30T02:04:13.020Z,3.67
2023-03-30T02:06:48.981Z,4.88
2023-03-30T02:09:24.093Z,5.82
2023-03-30T02:14:31.236Z,7.15
2023-03-30T02:17:06.877Z,5.32
2023-03-30T02:19:38.102Z,3.38
2023-03-30T02:22:08.975Z,4.40
2023-03-30T02:24:36.727Z,5.68
2023-03-30T02:27:06.918Z,3.47
2023-03-30T02:29:39.384Z,4.90
2023-03-30T02:32:17.101Z,5.15
2023-03-30T02:34:57.366Z,4.60
2023-03-30T02:37:37.613Z,3.70
2023-03-30T02:40:41.034Z,3.97
2023-03-30T02:43:23.245Z,4.28
2023-03-30T02:46:03.421Z,4.28
2023-03-30T02:48:41.330Z,4.45
2023-03-30T02:51:33.830Z,5.25
2023-03-30T02:54:29.968Z,6.22
2023-03-30T02:57:33.243Z,4.07
2023-03-30T03:00:30.409Z,4.38
2023-03-30T03:03:05.265Z,3.33
2023-03-30T03:05:35.777Z,5.97
2023-03-30T03:08:07.583Z,3.63
2023-03-30T03:10:37.185Z,5.88
2023-03-30T03:13:08.315Z,3.03
2023-03-30T03:15:38.089Z,3.80
2023-03-30T03:18:13.122Z,3.63
2023-03-30T03:20:41.972Z,4.55
2023-03-30T03:23:10.493Z,6.45
2023-03-30T03:25:45.516Z,5.53
2023-03-30T03:28:15.893Z,4.32
2023-03-30T03:30:50.480Z,6.15
2023-03-30T03:33:22.173Z,5.53
2023-03-30T03:36:04.156Z,7.03
2023-03-30T03:38:34.342Z,4.75
2023-03-30T03:41:02.835Z,6.00
2023-03-30T03:43:33.019Z,7.75
2023-03-30T03:46:04.239Z,5.88
2023-03-30T03:48:32.568Z,8.15
2023-03-30T03:51:01.431Z,9.55
2023-03-30T03:53:34.201Z,8.55
2023-03-30T03:56:06.169Z,6.85
2023-03-30T03:58:36.076Z,7.68
2023-03-30T04:01:04.325Z,7.53
2023-03-30T04:03:34.402Z,8.40
2023-03-30T04:06:02.769Z,6.18
2023-03-30T04:08:32.819Z,6.25
2023-03-30T04:11:24.021Z,5.85
2023-03-30T04:14:18.514Z,7.72
2023-03-30T04:17:09.178Z,6.05
2023-03-30T04:20:05.057Z,6.70
2023-03-30T04:22:46.333Z,9.85
2023-03-30T04:25:40.645Z,7.07
2023-03-30T04:28:29.992Z,7.30
2023-03-30T04:31:24.412Z,7.00
2023-03-30T04:34:10.044Z,10.43
2023-03-30T04:36:43.661Z,8.75
2023-03-30T04:39:38.846Z,9.85
2023-03-30T04:42:34.692Z,12.55
2023-03-30T04:45:21.329Z,10.10
2023-03-30T04:48:07.968Z,7.03
2023-03-30T04:51:04.596Z,5.55
2023-03-30T04:53:56.070Z,7.18
2023-03-30T04:56:35.852Z,11.80
2023-03-30T04:59:17.770Z,5.57
2023-03-30T05:01:57.337Z,8.52
2023-03-30T05:04:43.848Z,12.45
2023-03-30T05:07:30.612Z,9.02
2023-03-30T05:10:15.072Z,11.18
2023-03-30T05:13:19.144Z,12.98
2023-03-30T05:16:05.809Z,9.77
2023-03-30T05:19:13.384Z,31.00
2023-03-30T05:21:47.573Z,19.10
2023-03-30T05:27:25.843Z,15.93
2023-03-30T05:30:14.052Z,21.85
2023-03-30T05:33:10.250Z,16.00
2023-03-30T05:36:01.370Z,13.27
2023-03-30T05:38:50.029Z,12.40
2023-03-30T05:41:40.164Z,10.00
2023-03-30T05:44:37.813Z,9.18
2023-03-30T05:47:35.869Z,14.93
2023-03-30T05:50:23.960Z,13.52
2023-03-30T05:53:00.054Z,13.02
2023-03-30T05:55:49.455Z,11.60
2023-03-30T05:58:40.340Z,12.45
2023-03-30T06:01:18.132Z,11.15
2023-03-30T06:03:48.927Z,10.60
2023-03-30T06:06:17.402Z,7.50
2023-03-30T06:08:51.395Z,9.93
2023-03-30T06:11:22.536Z,7.30
2023-03-30T06:14:00.266Z,7.45
2023-03-30T06:16:29.385Z,8.90
2023-03-30T06:18:57.825Z,9.20
2023-03-30T06:21:25.733Z,7.13
2023-03-30T06:24:11.896Z,9.68
2023-03-30T06:26:42.757Z,9.63
2023-03-30T06:29:10.531Z,9.55
2023-03-30T06:31:41.649Z,10.13
2023-03-30T06:34:29.789Z,7.22
2023-03-30T06:36:58.775Z,8.05
2023-03-30T06:39:29.665Z,10.02
2023-03-30T06:41:57.536Z,7.75
2023-03-30T06:44:54.423Z,13.30
2023-03-30T06:47:23.318Z,11.43
2023-03-30T06:49:51.991Z,11.02
2023-03-30T06:52:38.626Z,9.82
2023-03-30T06:55:08.330Z,7.60
2023-03-30T06:57:36.909Z,10.60
2023-03-30T07:00:13.721Z,11.02
2023-03-30T07:02:42.492Z,9.63
2023-03-30T07:05:33.563Z,11.82
2023-03-30T07:08:27.172Z,11.25
2023-03-30T07:10:56.284Z,12.63
2023-03-30T07:13:26.803Z,17.48
2023-03-30T07:15:55.227Z,11.63
2023-03-30T07:18:22.970Z,8.40
2023-03-30T07:20:51.431Z,10.55
2023-03-30T07:23:31.303Z,12.25
2023-03-30T07:25:59.169Z,17.02
2023-03-30T07:28:40.488Z,9.95
2023-03-30T07:31:14.030Z,8.07
2023-03-30T07:33:43.810Z,9.52
2023-03-30T07:36:15.939Z,8.75
2023-03-30T07:38:43.831Z,7.93
2023-03-30T07:41:14.708Z,9.82
2023-03-30T07:43:46.749Z,8.90
2023-03-30T07:46:14.617Z,8.30
2023-03-30T07:48:47.068Z,6.03
2023-03-30T07:51:20.458Z,8.57
2023-03-30T07:54:04.228Z,9.32
2023-03-30T07:56:54.597Z,7.45
2023-03-30T07:59:25.749Z,8.02
2023-03-30T08:01:57.479Z,6.88
2023-03-30T08:04:45.883Z,6.72
2023-03-30T08:07:16.866Z,8.02
2023-03-30T08:09:46.058Z,10.15
2023-03-30T08:12:13.936Z,12.32
2023-03-30T08:14:44.350Z,7.50
2023-03-30T08:17:17.195Z,12.13
2023-03-30T08:19:45.146Z,7.65
2023-03-30T08:22:13.039Z,11.93
2023-03-30T08:24:40.972Z,7.93
2023-03-30T08:27:08.913Z,10.65
2023-03-30T08:29:37.029Z,6.43
2023-03-30T08:32:04.973Z,7.15
2023-03-30T08:34:36.853Z,7.45
2023-03-30T08:37:05.826Z,8.85
2023-03-30T08:39:33.636Z,6.68
2023-03-30T08:42:20.061Z,10.65
2023-03-30T08:44:55.827Z,13.18
2023-03-30T08:47:41.252Z,12.40
2023-03-30T08:50:36.523Z,9.75
2023-03-30T08:53:06.585Z,14.15
2023-03-30T08:55:40.822Z,10.85
2023-03-30T08:58:27.570Z,12.10
2023-03-30T09:01:07.927Z,7.90
2023-03-30T09:04:07.317Z,11.57
2023-03-30T09:06:52.713Z,16.08
2023-03-30T09:09:24.212Z,16.15
2023-03-30T09:12:25.302Z,18.00
2023-03-30T09:15:01.039Z,16.13
2023-03-30T09:17:42.023Z,12.30
2023-03-30T09:20:13.429Z,12.43
2023-03-30T09:22:43.958Z,12.57
2023-03-30T09:25:45.255Z,12.00
2023-03-30T09:28:30.462Z,14.27
2023-03-30T09:31:18.216Z,12.65
2023-03-30T09:34:25.577Z,13.07
2023-03-30T09:36:58.379Z,14.75
2023-03-30T09:39:29.588Z,10.73
2023-03-30T09:42:15.398Z,14.65
2023-03-30T09:45:00.348Z,9.02
2023-03-30T09:47:39.207Z,10.07
2023-03-30T09:50:12.232Z,7.50
2023-03-30T09:52:41.116Z,10.10
2023-03-30T09:55:38.381Z,8.98
2023-03-30T09:58:18.863Z,10.32
2023-03-30T10:01:01.013Z,12.82
2023-03-30T10:03:29.513Z,9.93
2023-03-30T10:06:13.420Z,14.23
2023-03-30T10:08:49.961Z,12.50
2023-03-30T10:11:30.780Z,10.38
2023-03-30T10:13:59.858Z,12.02
2023-03-30T10:16:32.950Z,13.93
2023-03-30T10:19:04.039Z,12.52
2023-03-30T10:21:38.059Z,13.23
2023-03-30T10:24:22.410Z,12.55
2023-03-30T10:26:53.551Z,13.50
2023-03-30T10:29:24.030Z,15.23
2023-03-30T10:32:14.775Z,10.52
2023-03-30T10:34:54.525Z,12.48
2023-03-30T10:37:38.937Z,11.90
2023-03-30T10:40:19.191Z,15.38
2023-03-30T10:42:51.079Z,11.07
2023-03-30T10:45:46.020Z,15.63
2023-03-30T10:48:32.863Z,15.43
2023-03-30T10:51:27.660Z,14.25
2023-03-30T10:54:07.041Z,13.48
2023-03-30T10:57:12.683Z,12.27
2023-03-30T11:00:04.684Z,11.50
2023-03-30T11:02:44.474Z,14.43
2023-03-30T11:05:40.470Z,13.23
2023-03-30T11:08:15.472Z,13.52
2023-03-30T11:10:48.118Z,14.07
2023-03-30T11:13:29.379Z,10.82
2023-03-30T11:16:08.286Z,15.02
2023-03-30T11:19:00.357Z,11.73
2023-03-30T11:21:53.895Z,12.13
2023-03-30T11:24:23.098Z,11.05
2023-03-30T11:27:22.941Z,11.00
2023-03-30T11:30:17.121Z,11.75
2023-03-30T11:32:49.366Z,15.43
2023-03-30T11:35:40.935Z,10.27
2023-03-30T11:38:15.033Z,14.25
2023-03-30T11:40:47.217Z,10.20
2023-03-30T11:43:20.441Z,19.33
2023-03-30T11:46:30.871Z,16.48
2023-03-30T11:49:45.740Z,15.45
2023-03-30T11:52:41.652Z,16.17
2023-03-30T11:55:19.853Z,23.33
2023-03-30T11:58:21.942Z,17.02
2023-03-30T12:01:04.520Z,18.98
2023-03-30T12:03:36.153Z,17.88
2023-03-30T12:06:18.709Z,15.07
2023-03-30T12:08:59.192Z,19.42
2023-03-30T12:11:55.018Z,17.10
2023-03-30T12:14:47.345Z,10.32
2023-03-30T12:17:28.587Z,13.80
2023-03-30T12:20:07.215Z,18.35
2023-03-30T12:22:57.517Z,19.63
2023-03-30T12:25:43.969Z,17.38
2023-03-30T12:28:15.277Z,17.85
2023-03-30T12:30:55.921Z,17.33
2023-03-30T12:33:34.103Z,17.92
2023-03-30T12:36:23.246Z,15.07
2023-03-30T12:38:57.844Z,11.93
2023-03-30T12:41:27.606Z,10.07
2023-03-30T12:44:21.202Z,10.27
2023-03-30T12:47:18.492Z,12.18
2023-03-30T12:50:09.008Z,17.50
2023-03-30T12:53:04.209Z,12.63
2023-03-30T12:55:39.695Z,12.98
2023-03-30T12:58:39.183Z,11.88
2023-03-30T13:01:09.946Z,9.13
2023-03-30T13:03:40.900Z,10.38
2023-03-30T13:06:22.174Z,11.90
2023-03-30T13:09:04.601Z,11.55
2023-03-30T13:11:59.016Z,9.50
2023-03-30T13:14:31.335Z,12.75
2023-03-30T13:17:01.930Z,12.45
2023-03-30T13:19:32.926Z,13.27
2023-03-30T13:22:13.075Z,12.05
2023-03-30T13:24:58.134Z,10.25
2023-03-30T13:27:33.063Z,11.20
2023-03-30T13:30:10.020Z,10.70
2023-03-30T13:32:59.529Z,8.30
2023-03-30T13:35:51.543Z,8.95
2023-03-30T13:38:43.902Z,9.23
2023-03-30T13:41:19.423Z,9.90
2023-03-30T13:43:59.435Z,10.73
2023-03-30T13:46:40.214Z,8.80
2023-03-30T13:49:16.310Z,8.02
2023-03-30T13:51:45.843Z,12.35
2023-03-30T13:54:19.877Z,10.60
2023-03-30T13:57:10.890Z,18.02
2023-03-30T13:59:44.636Z,14.15
2023-03-30T14:02:18.352Z,12.88
2023-03-30T14:04:46.417Z,11.48
2023-03-30T14:07:21.417Z,15.52
2023-03-30T14:10:18.881Z,14.10
2023-03-30T14:12:53.008Z,20.47
2023-03-30T14:15:29.917Z,14.77
2023-03-30T14:18:01.721Z,13.43
2023-03-30T14:20:46.628Z,16.08
2023-03-30T14:23:36.628Z,16.38
2023-03-30T14:26:12.774Z,13.40
2023-03-30T14:28:42.670Z,16.70
2023-03-30T14:31:21.290Z,19.20
2023-03-30T14:33:50.945Z,16.60
2023-03-30T14:36:20.909Z,18.33
2023-03-30T14:38:51.668Z,14.88
2023-03-30T14:41:28.100Z,11.43
2023-03-30T14:44:07.789Z,9.53
2023-03-30T14:46:46.965Z,10.85
2023-03-30T14:49:25.187Z,11.00
2023-03-30T14:51:59.991Z,11.07
2023-03-30T14:54:29.034Z,9.35
2023-03-30T14:57:00.128Z,9.98
2023-03-30T14:59:30.943Z,8.30
2023-03-30T15:01:59.945Z,8.52
2023-03-30T15:04:34.390Z,10.00
2023-03-30T15:07:02.426Z,10.43
2023-03-30T15:09:38.625Z,12.82
2023-03-30T15:12:06.841Z,8.57
2023-03-30T15:14:39.738Z,11.27
2023-03-30T15:17:27.665Z,9.30
2023-03-30T15:19:58.720Z,12.48
2023-03-30T15:22:30.895Z,13.73
2023-03-30T15:25:03.111Z,9.52
2023-03-30T15:27:31.386Z,11.80
2023-03-30T15:30:01.259Z,11.93
2023-03-30T15:32:38.845Z,13.13
2023-03-30T15:35:15.769Z,14.80
2023-03-30T15:40:39.553Z,14.98
2023-03-30T15:43:29.516Z,13.20
2023-03-30T15:46:01.111Z,9.93
2023-03-30T15:48:48.243Z,11.30
2023-03-30T15:51:36.156Z,10.00
2023-03-30T15:54:21.757Z,8.57
2023-03-30T15:56:59.476Z,11.10
2023-03-30T15:59:41.161Z,11.05
2023-03-30T16:02:20.894Z,11.60
2023-03-30T16:04:52.217Z,9.23
2023-03-30T16:07:24.866Z,11.40
2023-03-30T16:09:53.135Z,10.48
2023-03-30T16:12:25.566Z,13.43
2023-03-30T16:14:54.462Z,12.75
2023-03-30T16:17:22.300Z,13.43
2023-03-30T16:19:50.031Z,11.13
2023-03-30T16:22:17.865Z,12.55
2023-03-30T16:24:46.416Z,8.68
2023-03-30T16:27:14.465Z,10.60
2023-03-30T16:29:42.388Z,15.07
2023-03-30T16:32:10.238Z,11.27
2023-03-30T16:34:38.010Z,13.65
2023-03-30T16:37:05.834Z,9.50
2023-03-30T16:39:35.673Z,11.90
2023-03-30T16:42:03.612Z,10.48
2023-03-30T16:44:31.539Z,12.02
2023-03-30T16:47:02.650Z,29.40
2023-03-30T16:49:30.891Z,27.40
2023-03-30T16:52:01.346Z,16.23
2023-03-30T16:54:32.529Z,16.75
2023-03-30T16:57:01.967Z,10.73
2023-03-30T16:59:31.312Z,12.85
2023-03-30T17:02:00.301Z,8.85
2023-03-30T17:04:28.494Z,12.35
2023-03-30T17:06:57.747Z,13.77
2023-03-30T17:09:26.017Z,15.10
2023-03-30T17:11:53.787Z,15.48
2023-03-30T17:14:23.425Z,11.90
2023-03-30T17:16:51.408Z,12.77
2023-03-30T17:19:19.434Z,10.52
2023-03-30T17:21:47.617Z,13.25
2023-03-30T17:24:18.818Z,16.85
2023-03-30T17:26:46.679Z,19.10
2023-03-30T17:29:14.646Z,14.27
2023-03-30T17:31:46.136Z,21.35
2023-03-30T17:34:15.019Z,19.52
2023-03-30T17:36:43.441Z,20.33
2023-03-30T17:39:15.016Z,18.80
2023-03-30T17:41:42.876Z,21.38
2023-03-30T17:44:10.757Z,16.80
2023-03-30T17:46:39.693Z,9.77
2023-03-30T17:49:16.292Z,13.55
2023-03-30T17:51:44.250Z,13.40
2023-03-30T17:54:15.113Z,13.68
2023-03-30T17:56:43.261Z,12.70
2023-03-30T17:59:12.343Z,12.80
2023-03-30T18:01:41.653Z,14.07
2023-03-30T18:04:10.145Z,11.02
2023-03-30T18:06:38.038Z,14.88
2023-03-30T18:09:14.891Z,15.65
2023-03-30T18:11:43.145Z,17.45
2023-03-30T18:14:11.212Z,17.50
2023-03-30T18:16:43.674Z,13.95
2023-03-30T18:19:12.162Z,17.35
2023-03-30T18:21:40.024Z,19.02
2023-03-30T18:24:11.628Z,19.20
2023-03-30T18:26:41.629Z,20.27
2023-03-30T18:29:26.221Z,22.67
2023-03-30T18:31:54.200Z,21.35
2023-03-30T18:34:22.148Z,16.83
2023-03-30T18:36:49.799Z,14.50
2023-03-30T18:39:20.109Z,13.75
2023-03-30T18:41:49.588Z,16.10
2023-03-30T18:44:18.540Z,25.27
2023-03-30T18:46:51.711Z,30.30
2023-03-30T18:49:21.590Z,37.42
2023-03-30T18:51:49.664Z,39.63
2023-03-30T18:54:17.665Z,39.53
2023-03-30T18:56:48.080Z,42.72
2023-03-30T18:59:16.249Z,34.92
2023-03-30T19:01:46.173Z,32.40
2023-03-30T19:04:14.325Z,27.98
2023-03-30T19:06:44.546Z,27.42
2023-03-30T19:09:14.823Z,23.48
2023-03-30T19:11:42.673Z,19.35
2023-03-30T19:14:11.619Z,14.77
2023-03-30T19:16:39.452Z,15.38
2023-03-30T19:19:10.010Z,18.33
2023-03-30T19:21:38.006Z,15.00
2023-03-30T19:24:06.029Z,15.00
2023-03-30T19:26:34.138Z,18.17
2023-03-30T19:29:01.955Z,11.75
2023-03-30T19:31:29.747Z,17.08
2023-03-30T19:33:57.762Z,16.27
2023-03-30T19:36:26.193Z,11.88
2023-03-30T19:38:54.603Z,17.40
2023-03-30T19:41:22.394Z,16.52
2023-03-30T19:43:51.029Z,30.70
2023-03-30T19:46:19.012Z,25.58
2023-03-30T19:48:46.650Z,24.23
2023-03-30T19:51:14.367Z,20.52
2023-03-30T19:53:42.769Z,22.33
2023-03-30T19:56:11.696Z,21.48
2023-03-30T19:58:39.696Z,15.77
2023-03-30T20:01:08.611Z,20.63
2023-03-30T20:03:36.937Z,24.98
2023-03-30T20:06:09.756Z,22.17
2023-03-30T20:08:38.916Z,21.63
2023-03-30T20:11:08.621Z,20.60
2023-03-30T20:13:36.944Z,17.10
2023-03-30T20:16:07.793Z,21.88
2023-03-30T20:18:35.876Z,20.40
2023-03-30T20:21:04.645Z,14.05
2023-03-30T20:23:33.365Z,19.67
2023-03-30T20:26:04.654Z,19.27
2023-03-30T20:28:33.958Z,15.90
2023-03-30T20:31:05.399Z,12.45
2023-03-30T20:33:33.859Z,13.68
2023-03-30T20:36:02.379Z,15.52
2023-03-30T20:38:30.390Z,15.60
2023-03-30T20:41:02.411Z,16.38
2023-03-30T20:43:33.778Z,17.48
2023-03-30T20:46:03.307Z,18.17
2023-03-30T20:48:39.685Z,22.17
2023-03-30T20:51:12.426Z,16.02
2023-03-30T20:53:42.458Z,17.08
2023-03-30T20:56:12.057Z,18.92
2023-03-30T20:58:40.644Z,19.80
2023-03-30T21:01:25.694Z,16.02
2023-03-30T21:03:58.868Z,16.05
2023-03-30T21:06:28.937Z,19.35
2023-03-30T21:09:02.314Z,19.73
2023-03-30T21:11:33.763Z,14.20
2023-03-30T21:14:02.293Z,19.27
2023-03-30T21:16:30.188Z,14.55
2023-03-30T21:18:58.494Z,12.48
2023-03-30T21:21:27.569Z,17.52
2023-03-30T21:23:57.590Z,16.25
2023-03-30T21:26:26.637Z,18.63
2023-03-30T21:28:54.394Z,15.65
2023-03-30T21:31:22.237Z,14.40
2023-03-30T21:33:50.618Z,14.50
2023-03-30T21:36:18.846Z,13.93
2023-03-30T21:38:46.753Z,14.70
2023-03-30T21:41:17.360Z,17.92
2023-03-30T21:43:47.934Z,18.00
2023-03-30T21:46:22.402Z,18.45
2023-03-30T21:48:53.638Z,16.05
2023-03-30T21:51:27.856Z,14.80
2023-03-30T21:53:57.258Z,18.05
2023-03-30T21:56:29.315Z,26.05
2023-03-30T21:58:59.308Z,24.42
2023-03-30T22:01:27.886Z,26.92
2023-03-30T22:03:56.612Z,23.45
2023-03-30T22:06:24.862Z,23.85
2023-03-30T22:08:52.565Z,20.55
2023-03-30T22:11:25.059Z,18.55
2023-03-30T22:13:55.614Z,19.00
2023-03-30T22:16:32.338Z,18.77
2023-03-30T22:19:00.219Z,16.13
2023-03-30T22:21:38.548Z,17.50
2023-03-30T22:24:10.394Z,14.60
2023-03-30T22:26:38.358Z,15.80
2023-03-30T22:29:06.573Z,17.42
2023-03-30T22:31:34.480Z,18.35
2023-03-30T22:34:02.616Z,19.08
2023-03-30T22:36:31.193Z,18.58
2023-03-30T22:39:00.995Z,19.83
2023-03-30T22:41:29.317Z,14.88
2023-03-30T22:43:58.202Z,21.10
2023-03-30T22:46:27.393Z,18.95
2023-03-30T22:48:56.909Z,14.32
2023-03-30T22:51:28.667Z,14.73
2023-03-30T22:53:59.999Z,16.30
2023-03-30T22:56:31.307Z,18.05
2023-03-30T22:59:00.971Z,19.17
2023-03-30T23:01:32.617Z,15.23
2023-03-30T23:04:00.862Z,15.13
2023-03-30T23:06:28.797Z,18.00
2023-03-30T23:08:56.720Z,15.10
2023-03-30T23:11:26.659Z,14.43
2023-03-30T23:13:54.855Z,18.55
2023-03-30T23:16:24.164Z,15.13
2023-03-30T23:18:52.154Z,18.45
2023-03-30T23:21:22.506Z,15.05
2023-03-30T23:23:50.957Z,13.02
2023-03-30T23:26:19.702Z,15.80
2023-03-30T23:28:47.706Z,16.05
2023-03-30T23:32:08.458Z,16.77
2023-03-30T23:34:36.417Z,18.05
2023-03-30T23:37:04.327Z,16.58
2023-03-30T23:39:33.122Z,11.88
2023-03-30T23:42:00.899Z,14.65
2023-03-30T23:44:29.873Z,15.73
2023-03-30T23:47:01.959Z,14.18
2023-03-30T23:49:29.815Z,13.30
2023-03-30T23:51:57.824Z,14.40
2023-03-30T23:54:25.920Z,17.83
2023-03-30T23:56:57.984Z,17.35
2023-03-30T23:59:26.585Z,13.75
